This is the latest recevied weather packets stored in our database for station/object W0WC. If no packets are shown the sender has not sent any weather packets the latest 10 day(s).
| Time | Temp. | Humidity | Pressure | Rain* | Wind** | Luminosity | Snow |
|---|---|---|---|---|---|---|---|
| 1777676441 | 18.33° C | 32% | 1017 hPa | 0 mm | - | 228 W/m² | - |
| 1777676138 | 18.33° C | 32% | 1017 hPa | 0 mm | - | 238 W/m² | - |
| 1777675834 | 18.33° C | 32% | 1016.9 hPa | 0 mm | - | 251 W/m² | - |
| 1777675532 | 18.33° C | 33% | 1016.8 hPa | 0 mm | - | 248 W/m² | - |
| 1777675229 | 18.33° C | 32% | 1016.8 hPa | 0 mm | - | 277 W/m² | - |
| 1777674925 | 18.33° C | 31% | 1016.9 hPa | 0 mm | - | 275 W/m² | - |
| 1777674622 | 18.33° C | 33% | 1016.9 hPa | 0 mm | - | 283 W/m² | - |
| 1777674321 | 18.33° C | 33% | 1016.9 hPa | 0 mm | - | 352 W/m² | - |
| 1777674016 | 17.78° C | 32% | 1017 hPa | 0 mm | - | 350 W/m² | - |
| 1777673711 | 18.33° C | 32% | 1017 hPa | 0 mm | - | 366 W/m² | - |
| 1777673409 | 18.33° C | 32% | 1016.9 hPa | 0 mm | - | 357 W/m² | - |
| 1777673107 | 18.33° C | 33% | 1016.8 hPa | 0 mm | - | 407 W/m² | - |
| 1777672803 | 18.33° C | 31% | 1017 hPa | 0 mm | - | 398 W/m² | - |
| 1777672499 | 18.33° C | 32% | 1017.1 hPa | 0 mm | - | 433 W/m² | - |
| 1777672195 | 18.89° C | 33% | 1017.1 hPa | 0 mm | - | 457 W/m² | - |
| 1777671890 | 17.78° C | 32% | 1017.2 hPa | 0 mm | - | 501 W/m² | - |
| 1777671586 | 17.78° C | 32% | 1017.3 hPa | 0 mm | - | 508 W/m² | - |
| 1777671284 | 17.78° C | 33% | 1017.3 hPa | 0 mm | - | 544 W/m² | - |
| 1777670978 | 18.33° C | 32% | 1017.4 hPa | 0 mm | - | 288 W/m² | - |
| 1777670676 | 17.78° C | 34% | 1017.6 hPa | 0 mm | - | 614 W/m² | - |
| 1777670372 | 17.78° C | 32% | 1017.8 hPa | 0 mm | - | 459 W/m² | - |
| 1777670070 | 17.78° C | 34% | 1018 hPa | 0 mm | - | 579 W/m² | - |
| 1777669767 | 18.89° C | 31% | 1017.9 hPa | 0 mm | - | 122 W/m² | - |
| 1777669464 | 18.89° C | 32% | 1018.1 hPa | 0 mm | - | 603 W/m² | - |
| 1777669160 | 18.33° C | 32% | 1018.1 hPa | 0 mm | - | 607 W/m² | - |
* Rain latest hour (hover to see other rain measurements)
** Current wind speed in m/s (hover to see current wind gust speed)